sensor_id;sensor_type;location;lat;lon;timestamp;P1;durP1;ratioP1;P2;durP2;ratioP2
17488;SDS011;8861;52.644;4.734;2024-03-02T00:00:15;4.03;;;3.07;;
17488;SDS011;8861;52.644;4.734;2024-03-02T00:02:47;4.43;;;2.77;;
17488;SDS011;8861;52.644;4.734;2024-03-02T00:05:15;5.20;;;3.03;;
17488;SDS011;8861;52.644;4.734;2024-03-02T00:07:44;4.17;;;2.80;;
17488;SDS011;8861;52.644;4.734;2024-03-02T00:10:14;7.70;;;3.00;;
17488;SDS011;8861;52.644;4.734;2024-03-02T00:12:46;7.07;;;3.50;;
17488;SDS011;8861;52.644;4.734;2024-03-02T00:15:35;5.43;;;3.43;;
17488;SDS011;8861;52.644;4.734;2024-03-02T00:18:14;6.53;;;3.60;;
17488;SDS011;8861;52.644;4.734;2024-03-02T00:20:45;5.53;;;3.37;;
17488;SDS011;8861;52.644;4.734;2024-03-02T00:23:14;6.23;;;2.60;;
17488;SDS011;8861;52.644;4.734;2024-03-02T00:25:42;3.43;;;2.47;;
17488;SDS011;8861;52.644;4.734;2024-03-02T00:28:11;2.10;;;1.90;;
17488;SDS011;8861;52.644;4.734;2024-03-02T00:30:55;1.97;;;1.87;;
17488;SDS011;8861;52.644;4.734;2024-03-02T00:33:30;3.00;;;2.10;;
17488;SDS011;8861;52.644;4.734;2024-03-02T00:35:58;2.37;;;2.00;;
17488;SDS011;8861;52.644;4.734;2024-03-02T00:38:26;2.03;;;1.70;;
17488;SDS011;8861;52.644;4.734;2024-03-02T00:40:53;1.70;;;1.60;;
17488;SDS011;8861;52.644;4.734;2024-03-02T00:46:23;1.50;;;1.40;;
17488;SDS011;8861;52.644;4.734;2024-03-02T00:51:38;3.03;;;1.57;;
17488;SDS011;8861;52.644;4.734;2024-03-02T00:54:08;3.53;;;1.90;;
17488;SDS011;8861;52.644;4.734;2024-03-02T00:56:37;1.70;;;1.43;;
17488;SDS011;8861;52.644;4.734;2024-03-02T00:59:04;1.63;;;1.53;;
17488;SDS011;8861;52.644;4.734;2024-03-02T01:01:31;2.23;;;1.63;;
17488;SDS011;8861;52.644;4.734;2024-03-02T01:03:58;2.00;;;1.80;;
17488;SDS011;8861;52.644;4.734;2024-03-02T01:06:26;1.87;;;1.50;;
17488;SDS011;8861;52.644;4.734;2024-03-02T01:08:54;2.47;;;1.77;;
17488;SDS011;8861;52.644;4.734;2024-03-02T01:11:21;2.23;;;1.97;;
17488;SDS011;8861;52.644;4.734;2024-03-02T01:13:48;2.07;;;1.87;;
17488;SDS011;8861;52.644;4.734;2024-03-02T01:16:15;2.13;;;1.70;;
17488;SDS011;8861;52.644;4.734;2024-03-02T01:18:42;2.10;;;1.90;;
17488;SDS011;8861;52.644;4.734;2024-03-02T01:21:09;1.70;;;1.60;;
17488;SDS011;8861;52.644;4.734;2024-03-02T01:23:38;2.67;;;1.80;;
17488;SDS011;8861;52.644;4.734;2024-03-02T01:26:05;2.30;;;2.10;;
17488;SDS011;8861;52.644;4.734;2024-03-02T01:28:32;2.47;;;2.27;;
17488;SDS011;8861;52.644;4.734;2024-03-02T01:30:59;2.60;;;2.37;;
17488;SDS011;8861;52.644;4.734;2024-03-02T01:33:27;2.57;;;2.10;;
17488;SDS011;8861;52.644;4.734;2024-03-02T01:35:54;2.17;;;2.03;;
17488;SDS011;8861;52.644;4.734;2024-03-02T01:38:21;2.50;;;2.10;;
17488;SDS011;8861;52.644;4.734;2024-03-02T01:40:49;3.50;;;2.80;;
17488;SDS011;8861;52.644;4.734;2024-03-02T01:43:16;2.87;;;2.60;;
17488;SDS011;8861;52.644;4.734;2024-03-02T01:45:43;3.40;;;3.10;;
17488;SDS011;8861;52.644;4.734;2024-03-02T01:48:10;4.10;;;2.60;;
17488;SDS011;8861;52.644;4.734;2024-03-02T01:50:37;3.37;;;2.80;;
17488;SDS011;8861;52.644;4.734;2024-03-02T01:53:04;3.73;;;2.70;;
17488;SDS011;8861;52.644;4.734;2024-03-02T01:55:31;2.90;;;2.60;;
17488;SDS011;8861;52.644;4.734;2024-03-02T01:58:01;2.80;;;2.60;;
17488;SDS011;8861;52.644;4.734;2024-03-02T02:00:27;3.07;;;2.50;;
17488;SDS011;8861;52.644;4.734;2024-03-02T02:02:55;3.13;;;2.30;;
17488;SDS011;8861;52.644;4.734;2024-03-02T02:05:22;4.60;;;2.70;;
17488;SDS011;8861;52.644;4.734;2024-03-02T02:07:49;2.20;;;2.00;;
17488;SDS011;8861;52.644;4.734;2024-03-02T02:10:16;3.73;;;2.23;;
17488;SDS011;8861;52.644;4.734;2024-03-02T02:12:44;2.50;;;2.00;;
17488;SDS011;8861;52.644;4.734;2024-03-02T02:15:27;3.70;;;2.40;;
17488;SDS011;8861;52.644;4.734;2024-03-02T02:17:55;2.60;;;1.80;;
17488;SDS011;8861;52.644;4.734;2024-03-02T02:20:23;2.83;;;1.63;;
17488;SDS011;8861;52.644;4.734;2024-03-02T02:22:56;2.97;;;1.87;;
17488;SDS011;8861;52.644;4.734;2024-03-02T02:25:23;3.10;;;1.90;;
17488;SDS011;8861;52.644;4.734;2024-03-02T02:27:50;2.87;;;1.77;;
17488;SDS011;8861;52.644;4.734;2024-03-02T02:30:21;2.50;;;2.00;;
17488;SDS011;8861;52.644;4.734;2024-03-02T02:32:49;2.57;;;2.20;;
17488;SDS011;8861;52.644;4.734;2024-03-02T02:35:16;2.40;;;2.03;;
17488;SDS011;8861;52.644;4.734;2024-03-02T02:37:43;5.07;;;2.20;;
17488;SDS011;8861;52.644;4.734;2024-03-02T02:40:13;3.47;;;2.80;;
17488;SDS011;8861;52.644;4.734;2024-03-02T02:42:40;3.77;;;2.50;;
17488;SDS011;8861;52.644;4.734;2024-03-02T02:45:07;3.87;;;2.90;;
17488;SDS011;8861;52.644;4.734;2024-03-02T02:47:35;4.50;;;3.20;;
17488;SDS011;8861;52.644;4.734;2024-03-02T02:50:03;4.23;;;3.20;;
17488;SDS011;8861;52.644;4.734;2024-03-02T02:52:31;3.27;;;2.90;;
17488;SDS011;8861;52.644;4.734;2024-03-02T02:55:01;3.87;;;3.20;;
17488;SDS011;8861;52.644;4.734;2024-03-02T02:57:31;4.57;;;3.43;;
17488;SDS011;8861;52.644;4.734;2024-03-02T03:00:01;5.50;;;3.67;;
17488;SDS011;8861;52.644;4.734;2024-03-02T03:02:35;4.50;;;3.60;;
17488;SDS011;8861;52.644;4.734;2024-03-02T03:05:03;7.27;;;4.70;;
17488;SDS011;8861;52.644;4.734;2024-03-02T03:07:31;7.63;;;4.93;;
17488;SDS011;8861;52.644;4.734;2024-03-02T03:09:58;10.80;;;5.77;;
17488;SDS011;8861;52.644;4.734;2024-03-02T03:12:25;8.13;;;5.70;;
17488;SDS011;8861;52.644;4.734;2024-03-02T03:14:53;9.23;;;5.87;;
17488;SDS011;8861;52.644;4.734;2024-03-02T03:17:21;8.73;;;6.00;;
17488;SDS011;8861;52.644;4.734;2024-03-02T03:19:48;9.20;;;7.07;;
17488;SDS011;8861;52.644;4.734;2024-03-02T03:22:15;9.13;;;7.10;;
17488;SDS011;8861;52.644;4.734;2024-03-02T03:24:42;10.27;;;7.50;;
17488;SDS011;8861;52.644;4.734;2024-03-02T03:27:09;9.33;;;7.57;;
17488;SDS011;8861;52.644;4.734;2024-03-02T03:29:36;9.83;;;7.47;;
17488;SDS011;8861;52.644;4.734;2024-03-02T03:32:06;8.80;;;6.97;;
17488;SDS011;8861;52.644;4.734;2024-03-02T03:34:33;9.00;;;7.13;;
17488;SDS011;8861;52.644;4.734;2024-03-02T03:37:00;8.50;;;7.50;;
17488;SDS011;8861;52.644;4.734;2024-03-02T03:39:27;8.80;;;7.80;;
17488;SDS011;8861;52.644;4.734;2024-03-02T03:41:54;8.33;;;7.37;;
17488;SDS011;8861;52.644;4.734;2024-03-02T03:44:21;8.13;;;7.27;;
17488;SDS011;8861;52.644;4.734;2024-03-02T03:46:49;9.90;;;8.17;;
17488;SDS011;8861;52.644;4.734;2024-03-02T03:49:17;8.10;;;6.90;;
17488;SDS011;8861;52.644;4.734;2024-03-02T03:51:44;8.40;;;7.03;;
17488;SDS011;8861;52.644;4.734;2024-03-02T03:54:11;6.83;;;6.13;;
17488;SDS011;8861;52.644;4.734;2024-03-02T03:56:38;7.80;;;6.10;;
17488;SDS011;8861;52.644;4.734;2024-03-02T03:59:05;8.80;;;5.70;;
17488;SDS011;8861;52.644;4.734;2024-03-02T04:01:32;7.57;;;5.70;;
17488;SDS011;8861;52.644;4.734;2024-03-02T04:03:59;8.57;;;5.10;;
17488;SDS011;8861;52.644;4.734;2024-03-02T04:06:30;6.53;;;5.20;;
17488;SDS011;8861;52.644;4.734;2024-03-02T04:08:57;5.60;;;4.87;;
17488;SDS011;8861;52.644;4.734;2024-03-02T04:11:24;5.43;;;4.93;;
17488;SDS011;8861;52.644;4.734;2024-03-02T04:13:51;5.10;;;4.13;;
17488;SDS011;8861;52.644;4.734;2024-03-02T04:16:18;5.23;;;4.70;;
17488;SDS011;8861;52.644;4.734;2024-03-02T04:18:45;6.93;;;5.50;;
17488;SDS011;8861;52.644;4.734;2024-03-02T04:21:12;6.57;;;5.50;;
17488;SDS011;8861;52.644;4.734;2024-03-02T04:23:40;6.50;;;5.67;;
17488;SDS011;8861;52.644;4.734;2024-03-02T04:26:07;8.03;;;6.37;;
17488;SDS011;8861;52.644;4.734;2024-03-02T04:28:34;11.50;;;6.90;;
17488;SDS011;8861;52.644;4.734;2024-03-02T04:31:01;7.90;;;6.77;;
17488;SDS011;8861;52.644;4.734;2024-03-02T04:33:28;8.07;;;6.40;;
17488;SDS011;8861;52.644;4.734;2024-03-02T04:35:55;7.73;;;6.23;;
17488;SDS011;8861;52.644;4.734;2024-03-02T04:38:22;7.93;;;6.10;;
17488;SDS011;8861;52.644;4.734;2024-03-02T04:40:51;10.03;;;6.37;;
17488;SDS011;8861;52.644;4.734;2024-03-02T04:43:18;8.67;;;5.93;;
17488;SDS011;8861;52.644;4.734;2024-03-02T04:45:45;8.80;;;6.47;;
17488;SDS011;8861;52.644;4.734;2024-03-02T04:48:12;8.67;;;6.53;;
17488;SDS011;8861;52.644;4.734;2024-03-02T04:50:39;9.60;;;6.77;;
17488;SDS011;8861;52.644;4.734;2024-03-02T04:53:06;7.40;;;6.37;;
17488;SDS011;8861;52.644;4.734;2024-03-02T04:55:33;7.00;;;5.53;;
17488;SDS011;8861;52.644;4.734;2024-03-02T04:58:45;7.50;;;5.77;;
17488;SDS011;8861;52.644;4.734;2024-03-02T05:01:12;8.50;;;5.97;;
17488;SDS011;8861;52.644;4.734;2024-03-02T05:03:41;7.70;;;5.37;;
17488;SDS011;8861;52.644;4.734;2024-03-02T05:06:08;7.70;;;5.23;;
17488;SDS011;8861;52.644;4.734;2024-03-02T05:08:35;5.87;;;5.00;;
17488;SDS011;8861;52.644;4.734;2024-03-02T05:11:05;6.23;;;4.90;;
17488;SDS011;8861;52.644;4.734;2024-03-02T05:13:47;5.73;;;4.70;;
17488;SDS011;8861;52.644;4.734;2024-03-02T05:16:14;5.73;;;4.50;;
17488;SDS011;8861;52.644;4.734;2024-03-02T05:18:41;7.20;;;4.87;;
17488;SDS011;8861;52.644;4.734;2024-03-02T05:21:08;5.50;;;4.47;;
17488;SDS011;8861;52.644;4.734;2024-03-02T05:23:35;6.40;;;4.80;;
17488;SDS011;8861;52.644;4.734;2024-03-02T05:26:02;6.40;;;4.53;;
17488;SDS011;8861;52.644;4.734;2024-03-02T05:28:29;4.53;;;4.00;;
17488;SDS011;8861;52.644;4.734;2024-03-02T05:30:58;5.10;;;4.03;;
17488;SDS011;8861;52.644;4.734;2024-03-02T05:33:25;7.63;;;4.40;;
17488;SDS011;8861;52.644;4.734;2024-03-02T05:35:52;6.20;;;4.30;;
17488;SDS011;8861;52.644;4.734;2024-03-02T05:38:19;4.20;;;3.80;;
17488;SDS011;8861;52.644;4.734;2024-03-02T05:40:46;5.83;;;3.87;;
17488;SDS011;8861;52.644;4.734;2024-03-02T05:43:13;5.67;;;3.80;;
17488;SDS011;8861;52.644;4.734;2024-03-02T05:45:40;5.03;;;3.70;;
17488;SDS011;8861;52.644;4.734;2024-03-02T05:48:09;5.17;;;3.40;;
17488;SDS011;8861;52.644;4.734;2024-03-02T05:50:36;5.80;;;3.87;;
17488;SDS011;8861;52.644;4.734;2024-03-02T05:53:03;5.73;;;3.87;;
17488;SDS011;8861;52.644;4.734;2024-03-02T05:55:30;5.17;;;3.50;;
17488;SDS011;8861;52.644;4.734;2024-03-02T05:57:57;5.00;;;3.53;;
17488;SDS011;8861;52.644;4.734;2024-03-02T06:00:40;5.90;;;3.60;;
17488;SDS011;8861;52.644;4.734;2024-03-02T06:03:09;4.93;;;3.30;;
17488;SDS011;8861;52.644;4.734;2024-03-02T06:05:36;5.27;;;3.10;;
17488;SDS011;8861;52.644;4.734;2024-03-02T06:08:03;4.43;;;3.20;;
17488;SDS011;8861;52.644;4.734;2024-03-02T06:10:30;5.23;;;3.60;;
17488;SDS011;8861;52.644;4.734;2024-03-02T06:12:57;5.23;;;3.10;;
17488;SDS011;8861;52.644;4.734;2024-03-02T06:15:26;5.07;;;3.07;;
17488;SDS011;8861;52.644;4.734;2024-03-02T06:17:53;6.50;;;3.23;;
17488;SDS011;8861;52.644;4.734;2024-03-02T06:20:21;4.70;;;3.07;;
17488;SDS011;8861;52.644;4.734;2024-03-02T06:22:48;3.97;;;3.00;;
17488;SDS011;8861;52.644;4.734;2024-03-02T06:25:15;4.00;;;2.97;;
17488;SDS011;8861;52.644;4.734;2024-03-02T06:27:42;4.33;;;3.20;;
17488;SDS011;8861;52.644;4.734;2024-03-02T06:30:10;3.63;;;3.00;;
17488;SDS011;8861;52.644;4.734;2024-03-02T06:32:38;4.73;;;3.13;;
17488;SDS011;8861;52.644;4.734;2024-03-02T06:35:05;4.13;;;2.90;;
17488;SDS011;8861;52.644;4.734;2024-03-02T06:37:36;6.03;;;3.37;;
17488;SDS011;8861;52.644;4.734;2024-03-02T06:40:06;6.23;;;2.80;;
17488;SDS011;8861;52.644;4.734;2024-03-02T06:42:33;5.43;;;3.10;;
17488;SDS011;8861;52.644;4.734;2024-03-02T06:45:01;3.60;;;2.60;;
17488;SDS011;8861;52.644;4.734;2024-03-02T06:47:28;3.80;;;2.73;;
17488;SDS011;8861;52.644;4.734;2024-03-02T06:49:55;4.97;;;2.90;;
17488;SDS011;8861;52.644;4.734;2024-03-02T06:52:23;4.23;;;2.53;;
17488;SDS011;8861;52.644;4.734;2024-03-02T06:54:52;5.77;;;2.80;;
17488;SDS011;8861;52.644;4.734;2024-03-02T06:57:29;3.47;;;2.50;;
17488;SDS011;8861;52.644;4.734;2024-03-02T07:00:07;4.83;;;2.90;;
17488;SDS011;8861;52.644;4.734;2024-03-02T07:02:38;3.70;;;2.50;;
17488;SDS011;8861;52.644;4.734;2024-03-02T07:05:06;3.03;;;2.33;;
17488;SDS011;8861;52.644;4.734;2024-03-02T07:07:34;3.93;;;2.47;;
17488;SDS011;8861;52.644;4.734;2024-03-02T07:10:03;3.83;;;2.60;;
17488;SDS011;8861;52.644;4.734;2024-03-02T07:12:32;5.33;;;2.63;;
17488;SDS011;8861;52.644;4.734;2024-03-02T07:14:59;4.47;;;2.50;;
17488;SDS011;8861;52.644;4.734;2024-03-02T07:17:46;5.63;;;2.20;;
17488;SDS011;8861;52.644;4.734;2024-03-02T07:20:13;3.07;;;2.10;;
17488;SDS011;8861;52.644;4.734;2024-03-02T07:22:40;4.57;;;2.67;;
17488;SDS011;8861;52.644;4.734;2024-03-02T07:25:08;3.43;;;2.63;;
17488;SDS011;8861;52.644;4.734;2024-03-02T07:27:35;4.47;;;2.30;;
17488;SDS011;8861;52.644;4.734;2024-03-02T07:30:02;4.00;;;2.47;;
17488;SDS011;8861;52.644;4.734;2024-03-02T07:32:30;4.23;;;2.67;;
17488;SDS011;8861;52.644;4.734;2024-03-02T07:34:57;5.63;;;2.60;;
17488;SDS011;8861;52.644;4.734;2024-03-02T07:37:25;3.03;;;2.17;;
17488;SDS011;8861;52.644;4.734;2024-03-02T07:39:52;4.47;;;2.20;;
17488;SDS011;8861;52.644;4.734;2024-03-02T07:42:21;5.00;;;2.33;;
17488;SDS011;8861;52.644;4.734;2024-03-02T07:44:48;4.43;;;2.10;;
17488;SDS011;8861;52.644;4.734;2024-03-02T07:47:15;5.07;;;2.40;;
17488;SDS011;8861;52.644;4.734;2024-03-02T07:49:43;5.43;;;2.30;;
17488;SDS011;8861;52.644;4.734;2024-03-02T07:52:11;3.83;;;2.17;;
17488;SDS011;8861;52.644;4.734;2024-03-02T07:54:38;3.50;;;1.90;;
17488;SDS011;8861;52.644;4.734;2024-03-02T07:57:05;2.57;;;1.90;;
17488;SDS011;8861;52.644;4.734;2024-03-02T07:59:33;5.60;;;2.07;;
17488;SDS011;8861;52.644;4.734;2024-03-02T08:02:00;3.50;;;2.10;;
17488;SDS011;8861;52.644;4.734;2024-03-02T08:04:27;3.80;;;2.17;;
17488;SDS011;8861;52.644;4.734;2024-03-02T08:06:54;3.17;;;2.10;;
17488;SDS011;8861;52.644;4.734;2024-03-02T08:09:22;4.67;;;2.30;;
17488;SDS011;8861;52.644;4.734;2024-03-02T08:11:49;3.80;;;2.40;;
17488;SDS011;8861;52.644;4.734;2024-03-02T08:14:16;5.37;;;2.30;;
17488;SDS011;8861;52.644;4.734;2024-03-02T08:16:47;7.27;;;2.40;;
17488;SDS011;8861;52.644;4.734;2024-03-02T08:19:14;3.90;;;2.10;;
17488;SDS011;8861;52.644;4.734;2024-03-02T08:21:42;9.57;;;2.57;;
17488;SDS011;8861;52.644;4.734;2024-03-02T08:24:09;5.23;;;2.43;;
17488;SDS011;8861;52.644;4.734;2024-03-02T08:26:36;3.47;;;2.17;;
17488;SDS011;8861;52.644;4.734;2024-03-02T08:29:03;4.10;;;2.40;;
17488;SDS011;8861;52.644;4.734;2024-03-02T08:31:30;6.13;;;2.40;;
17488;SDS011;8861;52.644;4.734;2024-03-02T08:33:59;4.07;;;2.53;;
17488;SDS011;8861;52.644;4.734;2024-03-02T08:36:26;7.03;;;2.60;;
17488;SDS011;8861;52.644;4.734;2024-03-02T08:38:53;3.43;;;2.60;;
17488;SDS011;8861;52.644;4.734;2024-03-02T08:41:19;4.93;;;2.47;;
17488;SDS011;8861;52.644;4.734;2024-03-02T08:43:46;3.83;;;2.70;;
17488;SDS011;8861;52.644;4.734;2024-03-02T08:46:14;7.20;;;2.80;;
17488;SDS011;8861;52.644;4.734;2024-03-02T08:48:41;5.03;;;2.60;;
17488;SDS011;8861;52.644;4.734;2024-03-02T08:51:09;5.40;;;2.40;;
17488;SDS011;8861;52.644;4.734;2024-03-02T08:53:36;6.93;;;2.90;;
17488;SDS011;8861;52.644;4.734;2024-03-02T08:56:04;7.33;;;2.93;;
17488;SDS011;8861;52.644;4.734;2024-03-02T08:58:31;7.87;;;2.70;;
17488;SDS011;8861;52.644;4.734;2024-03-02T09:00:58;6.43;;;2.83;;
17488;SDS011;8861;52.644;4.734;2024-03-02T09:03:25;4.70;;;2.50;;
17488;SDS011;8861;52.644;4.734;2024-03-02T09:05:53;4.37;;;2.70;;
17488;SDS011;8861;52.644;4.734;2024-03-02T09:08:21;5.07;;;2.77;;
17488;SDS011;8861;52.644;4.734;2024-03-02T09:10:48;7.57;;;2.70;;
17488;SDS011;8861;52.644;4.734;2024-03-02T09:13:15;5.80;;;2.50;;
17488;SDS011;8861;52.644;4.734;2024-03-02T09:15:42;6.00;;;3.00;;
17488;SDS011;8861;52.644;4.734;2024-03-02T09:18:09;7.97;;;2.30;;
17488;SDS011;8861;52.644;4.734;2024-03-02T09:20:37;6.70;;;2.40;;
17488;SDS011;8861;52.644;4.734;2024-03-02T09:23:04;4.97;;;2.43;;
17488;SDS011;8861;52.644;4.734;2024-03-02T09:25:35;8.60;;;2.83;;
17488;SDS011;8861;52.644;4.734;2024-03-02T09:28:03;5.47;;;2.47;;
17488;SDS011;8861;52.644;4.734;2024-03-02T09:30:33;4.77;;;2.30;;
17488;SDS011;8861;52.644;4.734;2024-03-02T09:33:00;6.30;;;2.10;;
17488;SDS011;8861;52.644;4.734;2024-03-02T09:35:27;6.77;;;2.30;;
17488;SDS011;8861;52.644;4.734;2024-03-02T09:37:55;6.23;;;2.20;;
17488;SDS011;8861;52.644;4.734;2024-03-02T09:40:22;5.63;;;2.10;;
17488;SDS011;8861;52.644;4.734;2024-03-02T09:42:51;6.20;;;2.20;;
17488;SDS011;8861;52.644;4.734;2024-03-02T09:45:22;4.80;;;2.20;;
17488;SDS011;8861;52.644;4.734;2024-03-02T09:47:49;6.60;;;2.23;;
17488;SDS011;8861;52.644;4.734;2024-03-02T09:50:17;5.77;;;1.87;;
17488;SDS011;8861;52.644;4.734;2024-03-02T09:52:45;5.57;;;2.20;;
17488;SDS011;8861;52.644;4.734;2024-03-02T09:55:19;5.27;;;1.90;;
17488;SDS011;8861;52.644;4.734;2024-03-02T09:57:47;5.30;;;1.90;;
17488;SDS011;8861;52.644;4.734;2024-03-02T10:00:17;6.20;;;2.00;;
17488;SDS011;8861;52.644;4.734;2024-03-02T10:02:44;8.50;;;2.03;;
17488;SDS011;8861;52.644;4.734;2024-03-02T10:05:17;5.27;;;1.80;;
17488;SDS011;8861;52.644;4.734;2024-03-02T10:07:53;3.57;;;1.90;;
17488;SDS011;8861;52.644;4.734;2024-03-02T10:10:26;9.13;;;1.97;;
17488;SDS011;8861;52.644;4.734;2024-03-02T10:13:05;6.23;;;1.67;;
17488;SDS011;8861;52.644;4.734;2024-03-02T10:15:35;3.17;;;1.70;;
17488;SDS011;8861;52.644;4.734;2024-03-02T10:18:06;7.03;;;1.80;;
17488;SDS011;8861;52.644;4.734;2024-03-02T10:20:36;5.63;;;2.00;;
17488;SDS011;8861;52.644;4.734;2024-03-02T10:23:10;7.70;;;1.90;;
17488;SDS011;8861;52.644;4.734;2024-03-02T10:25:38;4.83;;;1.83;;
17488;SDS011;8861;52.644;4.734;2024-03-02T10:28:05;5.00;;;1.90;;
17488;SDS011;8861;52.644;4.734;2024-03-02T10:30:39;5.60;;;1.70;;
17488;SDS011;8861;52.644;4.734;2024-03-02T10:33:06;5.07;;;1.43;;
17488;SDS011;8861;52.644;4.734;2024-03-02T10:35:33;8.77;;;1.93;;
17488;SDS011;8861;52.644;4.734;2024-03-02T10:38:01;5.60;;;1.77;;
17488;SDS011;8861;52.644;4.734;2024-03-02T10:40:30;3.37;;;1.80;;
17488;SDS011;8861;52.644;4.734;2024-03-02T10:42:58;5.00;;;1.70;;
17488;SDS011;8861;52.644;4.734;2024-03-02T10:45:28;6.13;;;1.97;;
17488;SDS011;8861;52.644;4.734;2024-03-02T10:47:57;7.30;;;1.93;;
17488;SDS011;8861;52.644;4.734;2024-03-02T10:50:25;4.47;;;1.50;;
17488;SDS011;8861;52.644;4.734;2024-03-02T10:52:55;7.30;;;1.70;;
17488;SDS011;8861;52.644;4.734;2024-03-02T10:55:22;6.20;;;1.90;;
17488;SDS011;8861;52.644;4.734;2024-03-02T10:57:51;6.97;;;1.77;;
17488;SDS011;8861;52.644;4.734;2024-03-02T11:00:19;4.37;;;1.70;;
17488;SDS011;8861;52.644;4.734;2024-03-02T11:02:55;4.80;;;1.60;;
17488;SDS011;8861;52.644;4.734;2024-03-02T11:05:28;6.30;;;1.80;;
17488;SDS011;8861;52.644;4.734;2024-03-02T11:08:06;9.73;;;2.00;;
17488;SDS011;8861;52.644;4.734;2024-03-02T11:10:35;4.53;;;1.40;;
17488;SDS011;8861;52.644;4.734;2024-03-02T11:13:05;4.20;;;1.63;;
17488;SDS011;8861;52.644;4.734;2024-03-02T11:15:35;5.37;;;1.87;;
17488;SDS011;8861;52.644;4.734;2024-03-02T11:18:11;2.63;;;1.50;;
17488;SDS011;8861;52.644;4.734;2024-03-02T11:20:39;4.83;;;1.70;;
17488;SDS011;8861;52.644;4.734;2024-03-02T11:23:07;6.87;;;1.77;;
17488;SDS011;8861;52.644;4.734;2024-03-02T11:25:35;4.77;;;1.73;;
17488;SDS011;8861;52.644;4.734;2024-03-02T11:28:05;3.73;;;1.67;;
17488;SDS011;8861;52.644;4.734;2024-03-02T11:30:55;5.53;;;1.93;;
17488;SDS011;8861;52.644;4.734;2024-03-02T11:33:25;6.07;;;1.80;;
17488;SDS011;8861;52.644;4.734;2024-03-02T11:35:56;3.20;;;1.50;;
17488;SDS011;8861;52.644;4.734;2024-03-02T11:38:27;5.33;;;1.77;;
17488;SDS011;8861;52.644;4.734;2024-03-02T11:40:58;4.47;;;1.73;;
17488;SDS011;8861;52.644;4.734;2024-03-02T11:43:27;7.23;;;2.00;;
17488;SDS011;8861;52.644;4.734;2024-03-02T11:45:58;5.77;;;2.00;;
17488;SDS011;8861;52.644;4.734;2024-03-02T11:48:33;6.23;;;2.07;;
17488;SDS011;8861;52.644;4.734;2024-03-02T11:51:01;4.27;;;1.47;;
17488;SDS011;8861;52.644;4.734;2024-03-02T11:53:30;5.57;;;1.73;;
17488;SDS011;8861;52.644;4.734;2024-03-02T11:55:58;4.73;;;1.77;;
17488;SDS011;8861;52.644;4.734;2024-03-02T11:58:26;3.13;;;1.77;;
17488;SDS011;8861;52.644;4.734;2024-03-02T12:00:54;7.93;;;1.90;;
17488;SDS011;8861;52.644;4.734;2024-03-02T12:03:23;4.03;;;1.80;;
17488;SDS011;8861;52.644;4.734;2024-03-02T12:05:53;5.03;;;1.43;;
17488;SDS011;8861;52.644;4.734;2024-03-02T12:08:21;5.20;;;1.60;;
17488;SDS011;8861;52.644;4.734;2024-03-02T12:10:58;7.63;;;1.73;;
17488;SDS011;8861;52.644;4.734;2024-03-02T12:13:25;3.70;;;1.60;;
17488;SDS011;8861;52.644;4.734;2024-03-02T12:15:58;3.70;;;1.80;;
17488;SDS011;8861;52.644;4.734;2024-03-02T12:18:25;4.27;;;1.67;;
17488;SDS011;8861;52.644;4.734;2024-03-02T12:20:54;5.97;;;1.77;;
17488;SDS011;8861;52.644;4.734;2024-03-02T12:23:23;5.70;;;1.50;;
17488;SDS011;8861;52.644;4.734;2024-03-02T12:25:50;5.93;;;1.80;;
17488;SDS011;8861;52.644;4.734;2024-03-02T12:28:17;6.60;;;1.77;;
17488;SDS011;8861;52.644;4.734;2024-03-02T12:30:46;6.47;;;1.80;;
17488;SDS011;8861;52.644;4.734;2024-03-02T12:33:16;5.57;;;1.80;;
17488;SDS011;8861;52.644;4.734;2024-03-02T12:35:43;4.23;;;1.77;;
17488;SDS011;8861;52.644;4.734;2024-03-02T12:38:12;5.60;;;1.60;;
17488;SDS011;8861;52.644;4.734;2024-03-02T12:40:40;5.10;;;1.70;;
17488;SDS011;8861;52.644;4.734;2024-03-02T12:43:08;4.17;;;1.80;;
17488;SDS011;8861;52.644;4.734;2024-03-02T12:45:36;4.40;;;1.63;;
17488;SDS011;8861;52.644;4.734;2024-03-02T12:48:08;3.77;;;1.57;;
17488;SDS011;8861;52.644;4.734;2024-03-02T12:50:35;6.13;;;1.80;;
17488;SDS011;8861;52.644;4.734;2024-03-02T12:53:02;7.90;;;1.73;;
17488;SDS011;8861;52.644;4.734;2024-03-02T12:55:31;4.53;;;1.57;;
17488;SDS011;8861;52.644;4.734;2024-03-02T12:57:59;3.73;;;1.50;;
17488;SDS011;8861;52.644;4.734;2024-03-02T13:00:28;5.30;;;1.70;;
17488;SDS011;8861;52.644;4.734;2024-03-02T13:02:58;4.80;;;1.50;;
17488;SDS011;8861;52.644;4.734;2024-03-02T13:05:29;5.00;;;1.73;;
17488;SDS011;8861;52.644;4.734;2024-03-02T13:07:57;3.93;;;1.40;;
17488;SDS011;8861;52.644;4.734;2024-03-02T13:10:25;5.60;;;1.37;;
17488;SDS011;8861;52.644;4.734;2024-03-02T13:12:55;5.63;;;1.50;;
17488;SDS011;8861;52.644;4.734;2024-03-02T13:15:39;3.60;;;1.40;;
17488;SDS011;8861;52.644;4.734;2024-03-02T13:18:07;5.03;;;1.50;;
17488;SDS011;8861;52.644;4.734;2024-03-02T13:20:34;5.43;;;1.50;;
17488;SDS011;8861;52.644;4.734;2024-03-02T13:23:09;3.97;;;1.50;;
17488;SDS011;8861;52.644;4.734;2024-03-02T13:25:36;5.23;;;1.63;;
17488;SDS011;8861;52.644;4.734;2024-03-02T13:28:06;3.20;;;1.40;;
17488;SDS011;8861;52.644;4.734;2024-03-02T13:30:33;3.33;;;1.40;;
17488;SDS011;8861;52.644;4.734;2024-03-02T13:33:00;4.50;;;1.60;;
17488;SDS011;8861;52.644;4.734;2024-03-02T13:35:27;5.23;;;1.40;;
17488;SDS011;8861;52.644;4.734;2024-03-02T13:37:54;5.20;;;1.70;;
17488;SDS011;8861;52.644;4.734;2024-03-02T13:40:21;2.87;;;1.40;;
17488;SDS011;8861;52.644;4.734;2024-03-02T13:42:49;3.23;;;1.40;;
17488;SDS011;8861;52.644;4.734;2024-03-02T13:45:20;3.33;;;1.30;;
17488;SDS011;8861;52.644;4.734;2024-03-02T13:47:47;5.00;;;1.43;;
17488;SDS011;8861;52.644;4.734;2024-03-02T13:50:15;3.10;;;1.27;;
17488;SDS011;8861;52.644;4.734;2024-03-02T13:52:47;2.93;;;1.10;;
17488;SDS011;8861;52.644;4.734;2024-03-02T13:55:14;3.63;;;1.33;;
17488;SDS011;8861;52.644;4.734;2024-03-02T13:57:42;4.20;;;1.20;;
17488;SDS011;8861;52.644;4.734;2024-03-02T14:00:09;2.60;;;1.20;;
17488;SDS011;8861;52.644;4.734;2024-03-02T14:02:39;5.10;;;1.30;;
17488;SDS011;8861;52.644;4.734;2024-03-02T14:05:06;3.57;;;1.53;;
17488;SDS011;8861;52.644;4.734;2024-03-02T14:07:37;5.30;;;1.40;;
17488;SDS011;8861;52.644;4.734;2024-03-02T14:10:04;2.37;;;1.20;;
17488;SDS011;8861;52.644;4.734;2024-03-02T14:12:32;3.60;;;1.50;;
17488;SDS011;8861;52.644;4.734;2024-03-02T14:14:59;3.43;;;1.50;;
17488;SDS011;8861;52.644;4.734;2024-03-02T14:17:28;3.50;;;1.47;;
17488;SDS011;8861;52.644;4.734;2024-03-02T14:19:58;2.73;;;1.30;;
17488;SDS011;8861;52.644;4.734;2024-03-02T14:22:25;4.40;;;1.50;;
17488;SDS011;8861;52.644;4.734;2024-03-02T14:24:52;4.83;;;1.43;;
17488;SDS011;8861;52.644;4.734;2024-03-02T14:27:22;3.80;;;1.40;;
17488;SDS011;8861;52.644;4.734;2024-03-02T14:29:50;4.20;;;1.43;;
17488;SDS011;8861;52.644;4.734;2024-03-02T14:32:17;3.77;;;1.40;;
17488;SDS011;8861;52.644;4.734;2024-03-02T14:34:44;3.70;;;1.30;;
17488;SDS011;8861;52.644;4.734;2024-03-02T14:37:34;5.20;;;1.50;;
17488;SDS011;8861;52.644;4.734;2024-03-02T14:40:01;3.43;;;1.47;;
17488;SDS011;8861;52.644;4.734;2024-03-02T14:42:31;1.80;;;1.17;;
17488;SDS011;8861;52.644;4.734;2024-03-02T14:44:58;4.13;;;1.50;;
17488;SDS011;8861;52.644;4.734;2024-03-02T14:47:35;4.33;;;1.40;;
17488;SDS011;8861;52.644;4.734;2024-03-02T14:50:05;2.83;;;1.30;;
17488;SDS011;8861;52.644;4.734;2024-03-02T14:52:34;3.87;;;1.47;;
17488;SDS011;8861;52.644;4.734;2024-03-02T14:55:01;4.53;;;1.63;;
17488;SDS011;8861;52.644;4.734;2024-03-02T14:57:29;4.13;;;1.50;;
17488;SDS011;8861;52.644;4.734;2024-03-02T14:59:57;4.63;;;1.60;;
17488;SDS011;8861;52.644;4.734;2024-03-02T15:02:24;2.93;;;1.40;;
17488;SDS011;8861;52.644;4.734;2024-03-02T15:04:53;4.17;;;1.50;;
17488;SDS011;8861;52.644;4.734;2024-03-02T15:07:21;4.13;;;1.50;;
17488;SDS011;8861;52.644;4.734;2024-03-02T15:09:49;4.87;;;1.77;;
17488;SDS011;8861;52.644;4.734;2024-03-02T15:12:16;3.83;;;1.30;;
17488;SDS011;8861;52.644;4.734;2024-03-02T15:14:43;3.97;;;1.60;;